sensor_id;sensor_type;location;lat;lon;timestamp;pressure;altitude;pressure_sealevel;temperature;humidity
59493;BME280;45497;43.996;22.876;2023-08-06T00:01:26;99903.75;;;20.86;65.68
59493;BME280;45497;43.996;22.876;2023-08-06T00:03:51;99877.03;;;20.79;65.94
59493;BME280;45497;43.996;22.876;2023-08-06T00:06:17;99881.66;;;20.84;65.67
59493;BME280;45497;43.996;22.876;2023-08-06T00:08:42;99891.88;;;20.87;65.67
59493;BME280;45497;43.996;22.876;2023-08-06T00:11:08;99893.75;;;20.81;65.96
59493;BME280;45497;43.996;22.876;2023-08-06T00:13:33;99894.38;;;20.61;66.46
59493;BME280;45497;43.996;22.876;2023-08-06T00:16:12;99885.84;;;20.69;66.39
59493;BME280;45497;43.996;22.876;2023-08-06T00:18:38;99873.84;;;20.55;67.22
59493;BME280;45497;43.996;22.876;2023-08-06T00:21:04;99879.34;;;20.65;67.07
59493;BME280;45497;43.996;22.876;2023-08-06T00:23:29;99900.88;;;20.65;67.02
59493;BME280;45497;43.996;22.876;2023-08-06T00:25:55;99903.66;;;20.75;66.67
59493;BME280;45497;43.996;22.876;2023-08-06T00:28:20;99905.34;;;20.81;66.55
59493;BME280;45497;43.996;22.876;2023-08-06T00:30:46;99901.81;;;20.81;66.58
59493;BME280;45497;43.996;22.876;2023-08-06T00:33:11;99913.09;;;20.73;66.61
59493;BME280;45497;43.996;22.876;2023-08-06T00:35:37;99905.84;;;20.78;66.73
59493;BME280;45497;43.996;22.876;2023-08-06T00:38:03;99890.75;;;20.77;66.79
59493;BME280;45497;43.996;22.876;2023-08-06T00:40:29;99905.56;;;20.75;66.85
59493;BME280;45497;43.996;22.876;2023-08-06T00:42:55;99881.88;;;20.77;66.72
59493;BME280;45497;43.996;22.876;2023-08-06T00:45:21;99825.91;;;20.52;68.08
59493;BME280;45497;43.996;22.876;2023-08-06T00:47:48;99764.94;;;20.35;68.80
59493;BME280;45497;43.996;22.876;2023-08-06T00:50:13;99733.69;;;20.34;68.69
59493;BME280;45497;43.996;22.876;2023-08-06T00:52:40;99745.34;;;20.45;68.32
59493;BME280;45497;43.996;22.876;2023-08-06T00:55:06;99797.28;;;20.73;67.74
59493;BME280;45497;43.996;22.876;2023-08-06T00:57:32;99797.34;;;20.88;66.75
59493;BME280;45497;43.996;22.876;2023-08-06T00:59:58;99824.63;;;20.97;66.49
59493;BME280;45497;43.996;22.876;2023-08-06T01:02:23;99834.13;;;21.10;66.18
59493;BME280;45497;43.996;22.876;2023-08-06T01:04:49;99850.03;;;21.11;66.04
59493;BME280;45497;43.996;22.876;2023-08-06T01:15:55;99927.28;;;21.38;65.10
59493;BME280;45497;43.996;22.876;2023-08-06T01:18:22;99875.63;;;21.62;64.03
59493;BME280;45497;43.996;22.876;2023-08-06T01:20:48;99858.88;;;21.49;64.17
59493;BME280;45497;43.996;22.876;2023-08-06T01:23:15;99918.38;;;21.37;64.71
59493;BME280;45497;43.996;22.876;2023-08-06T01:28:59;99889.41;;;21.65;64.28
59493;BME280;45497;43.996;22.876;2023-08-06T01:31:30;99882.44;;;21.74;63.90
59493;BME280;45497;43.996;22.876;2023-08-06T01:33:58;99927.78;;;21.83;63.67
59493;BME280;45497;43.996;22.876;2023-08-06T01:36:25;99942.09;;;21.88;63.53
59493;BME280;45497;43.996;22.876;2023-08-06T01:38:53;99938.88;;;21.86;63.57
59493;BME280;45497;43.996;22.876;2023-08-06T01:41:19;99935.09;;;21.92;63.28
59493;BME280;45497;43.996;22.876;2023-08-06T01:43:45;99931.28;;;21.83;63.49
59493;BME280;45497;43.996;22.876;2023-08-06T01:46:10;99917.00;;;21.83;62.85
59493;BME280;45497;43.996;22.876;2023-08-06T01:48:35;99910.78;;;21.87;62.65
59493;BME280;45497;43.996;22.876;2023-08-06T01:51:04;99902.44;;;21.89;62.86
59493;BME280;45497;43.996;22.876;2023-08-06T01:53:30;99899.19;;;21.87;62.83
59493;BME280;45497;43.996;22.876;2023-08-06T01:55:55;99891.63;;;21.84;63.03
59493;BME280;45497;43.996;22.876;2023-08-06T01:58:21;99888.97;;;21.94;63.08
59493;BME280;45497;43.996;22.876;2023-08-06T02:00:46;99858.75;;;21.97;62.76
59493;BME280;45497;43.996;22.876;2023-08-06T02:03:11;99840.94;;;21.96;62.30
59493;BME280;45497;43.996;22.876;2023-08-06T02:05:37;99826.84;;;21.63;63.38
59493;BME280;45497;43.996;22.876;2023-08-06T02:08:02;99791.88;;;21.26;63.98
59493;BME280;45497;43.996;22.876;2023-08-06T02:10:28;99824.47;;;21.24;63.97
59493;BME280;45497;43.996;22.876;2023-08-06T02:12:53;99856.94;;;21.45;63.78
59493;BME280;45497;43.996;22.876;2023-08-06T02:15:19;99834.66;;;21.65;63.03
59493;BME280;45497;43.996;22.876;2023-08-06T02:17:44;99839.50;;;21.63;62.83
59493;BME280;45497;43.996;22.876;2023-08-06T02:20:10;99861.63;;;21.65;62.72
59493;BME280;45497;43.996;22.876;2023-08-06T02:22:35;99846.50;;;21.58;62.90
59493;BME280;45497;43.996;22.876;2023-08-06T02:25:01;99838.06;;;21.45;63.18
59493;BME280;45497;43.996;22.876;2023-08-06T02:27:26;99847.03;;;21.50;62.93
59493;BME280;45497;43.996;22.876;2023-08-06T02:29:52;99852.72;;;21.59;62.74
59493;BME280;45497;43.996;22.876;2023-08-06T02:32:17;99846.22;;;21.55;62.79
59493;BME280;45497;43.996;22.876;2023-08-06T02:34:43;99847.56;;;21.52;62.91
59493;BME280;45497;43.996;22.876;2023-08-06T02:37:08;99844.56;;;21.49;62.90
59493;BME280;45497;43.996;22.876;2023-08-06T02:39:34;99850.44;;;21.41;63.37
59493;BME280;45497;43.996;22.876;2023-08-06T02:42:00;99840.47;;;21.41;62.95
59493;BME280;45497;43.996;22.876;2023-08-06T02:44:29;99825.41;;;21.45;62.98
59493;BME280;45497;43.996;22.876;2023-08-06T02:46:54;99818.38;;;21.44;63.11
59493;BME280;45497;43.996;22.876;2023-08-06T02:49:20;99808.09;;;21.36;63.21
59493;BME280;45497;43.996;22.876;2023-08-06T02:51:45;99804.78;;;21.18;63.69
59493;BME280;45497;43.996;22.876;2023-08-06T02:54:11;99795.63;;;21.19;63.67
59493;BME280;45497;43.996;22.876;2023-08-06T02:56:36;99778.41;;;21.26;63.85
59493;BME280;45497;43.996;22.876;2023-08-06T02:59:02;99784.84;;;21.14;63.96
59493;BME280;45497;43.996;22.876;2023-08-06T03:01:27;99782.69;;;21.16;64.05
59493;BME280;45497;43.996;22.876;2023-08-06T03:03:53;99773.03;;;21.31;63.80
59493;BME280;45497;43.996;22.876;2023-08-06T03:06:19;99788.22;;;21.47;63.21
59493;BME280;45497;43.996;22.876;2023-08-06T03:08:44;99778.50;;;21.51;62.92
59493;BME280;45497;43.996;22.876;2023-08-06T03:11:10;99784.75;;;21.52;62.61
59493;BME280;45497;43.996;22.876;2023-08-06T03:13:35;99775.28;;;21.54;62.57
59493;BME280;45497;43.996;22.876;2023-08-06T03:16:01;99777.19;;;21.64;62.07
59493;BME280;45497;43.996;22.876;2023-08-06T03:18:27;99772.06;;;21.57;62.18
59493;BME280;45497;43.996;22.876;2023-08-06T03:20:53;99763.69;;;21.49;62.51
59493;BME280;45497;43.996;22.876;2023-08-06T03:23:18;99759.59;;;21.41;62.61
59493;BME280;45497;43.996;22.876;2023-08-06T03:25:44;99766.84;;;21.41;62.74
59493;BME280;45497;43.996;22.876;2023-08-06T03:28:10;99774.94;;;21.41;62.61
59493;BME280;45497;43.996;22.876;2023-08-06T03:30:35;99786.81;;;21.39;62.81
59493;BME280;45497;43.996;22.876;2023-08-06T03:33:01;99796.50;;;21.35;62.86
59493;BME280;45497;43.996;22.876;2023-08-06T03:35:27;99802.25;;;21.49;62.59
59493;BME280;45497;43.996;22.876;2023-08-06T03:37:52;99798.50;;;21.55;62.09
59493;BME280;45497;43.996;22.876;2023-08-06T03:40:18;99804.16;;;21.64;62.07
59493;BME280;45497;43.996;22.876;2023-08-06T03:42:43;99790.69;;;21.69;61.85
59493;BME280;45497;43.996;22.876;2023-08-06T03:45:09;99791.50;;;21.60;62.38
59493;BME280;45497;43.996;22.876;2023-08-06T03:47:34;99779.63;;;21.55;62.67
59493;BME280;45497;43.996;22.876;2023-08-06T03:50:00;99777.75;;;21.61;62.59
59493;BME280;45497;43.996;22.876;2023-08-06T03:52:25;99783.16;;;21.66;62.29
59493;BME280;45497;43.996;22.876;2023-08-06T03:54:51;99783.44;;;21.80;62.00
59493;BME280;45497;43.996;22.876;2023-08-06T03:57:17;99782.66;;;21.90;61.87
59493;BME280;45497;43.996;22.876;2023-08-06T03:59:42;99771.59;;;21.91;61.64
59493;BME280;45497;43.996;22.876;2023-08-06T04:02:08;99786.41;;;21.84;61.74
59493;BME280;45497;43.996;22.876;2023-08-06T04:04:33;99784.81;;;21.83;62.21
59493;BME280;45497;43.996;22.876;2023-08-06T04:06:58;99781.81;;;21.79;62.60
59493;BME280;45497;43.996;22.876;2023-08-06T04:09:24;99782.59;;;21.64;62.86
59493;BME280;45497;43.996;22.876;2023-08-06T04:11:49;99774.78;;;21.57;63.09
59493;BME280;45497;43.996;22.876;2023-08-06T04:14:15;99776.88;;;21.45;63.22
59493;BME280;45497;43.996;22.876;2023-08-06T04:16:40;99786.59;;;21.46;63.51
59493;BME280;45497;43.996;22.876;2023-08-06T04:19:06;99786.34;;;21.53;63.05
59493;BME280;45497;43.996;22.876;2023-08-06T04:21:31;99798.78;;;21.64;62.85
59493;BME280;45497;43.996;22.876;2023-08-06T04:23:57;99800.94;;;21.67;63.06
59493;BME280;45497;43.996;22.876;2023-08-06T04:26:22;99813.09;;;21.75;62.90
59493;BME280;45497;43.996;22.876;2023-08-06T04:28:47;99800.13;;;21.62;62.83
59493;BME280;45497;43.996;22.876;2023-08-06T04:31:14;99799.34;;;21.76;62.79
59493;BME280;45497;43.996;22.876;2023-08-06T04:33:39;99799.09;;;21.88;62.25
59493;BME280;45497;43.996;22.876;2023-08-06T04:36:05;99795.06;;;22.01;61.80
59493;BME280;45497;43.996;22.876;2023-08-06T04:38:31;99792.38;;;22.11;61.72
59493;BME280;45497;43.996;22.876;2023-08-06T04:40:57;99796.44;;;22.19;61.60
59493;BME280;45497;43.996;22.876;2023-08-06T04:43:23;99798.31;;;22.13;61.41
59493;BME280;45497;43.996;22.876;2023-08-06T04:45:49;99793.19;;;22.17;61.23
59493;BME280;45497;43.996;22.876;2023-08-06T04:48:15;99806.44;;;22.13;61.61
59493;BME280;45497;43.996;22.876;2023-08-06T04:50:45;99809.66;;;22.21;61.64
59493;BME280;45497;43.996;22.876;2023-08-06T04:53:10;99815.06;;;22.26;61.30
59493;BME280;45497;43.996;22.876;2023-08-06T04:55:36;99816.66;;;22.22;61.48
59493;BME280;45497;43.996;22.876;2023-08-06T04:58:02;99829.69;;;22.30;61.46
59493;BME280;45497;43.996;22.876;2023-08-06T05:00:27;99821.56;;;22.30;61.49
59493;BME280;45497;43.996;22.876;2023-08-06T05:02:53;99818.34;;;22.33;61.24
59493;BME280;45497;43.996;22.876;2023-08-06T05:05:18;99822.13;;;22.37;61.31
59493;BME280;45497;43.996;22.876;2023-08-06T05:07:47;99824.00;;;22.42;61.24
59493;BME280;45497;43.996;22.876;2023-08-06T05:10:13;99818.88;;;22.40;61.38
59493;BME280;45497;43.996;22.876;2023-08-06T05:12:38;99826.69;;;22.47;61.46
59493;BME280;45497;43.996;22.876;2023-08-06T05:15:04;99824.81;;;22.47;61.06
59493;BME280;45497;43.996;22.876;2023-08-06T05:17:30;99838.31;;;22.63;60.71
59493;BME280;45497;43.996;22.876;2023-08-06T05:19:55;99837.50;;;22.67;60.66
59493;BME280;45497;43.996;22.876;2023-08-06T05:22:21;99826.13;;;22.76;60.32
59493;BME280;45497;43.996;22.876;2023-08-06T05:24:46;99835.06;;;22.76;60.32
59493;BME280;45497;43.996;22.876;2023-08-06T05:27:12;99834.78;;;22.62;60.68
59493;BME280;45497;43.996;22.876;2023-08-06T05:29:37;99837.75;;;22.61;60.49
59493;BME280;45497;43.996;22.876;2023-08-06T05:34:28;99826.16;;;22.50;60.72
59493;BME280;45497;43.996;22.876;2023-08-06T05:36:54;99818.59;;;22.26;61.62
59493;BME280;45497;43.996;22.876;2023-08-06T05:39:19;99817.53;;;22.27;61.68
59493;BME280;45497;43.996;22.876;2023-08-06T05:41:45;99813.41;;;22.14;61.62
59493;BME280;45497;43.996;22.876;2023-08-06T05:44:10;99820.19;;;22.17;62.22
59493;BME280;45497;43.996;22.876;2023-08-06T05:46:36;99797.81;;;22.27;62.19
59493;BME280;45497;43.996;22.876;2023-08-06T05:49:02;99791.59;;;22.26;61.99
59493;BME280;45497;43.996;22.876;2023-08-06T05:51:27;99796.75;;;22.28;62.54
59493;BME280;45497;43.996;22.876;2023-08-06T05:53:53;99801.56;;;22.26;62.64
59493;BME280;45497;43.996;22.876;2023-08-06T05:56:19;99799.44;;;22.33;62.40
59493;BME280;45497;43.996;22.876;2023-08-06T05:58:44;99811.84;;;22.24;62.58
59493;BME280;45497;43.996;22.876;2023-08-06T06:01:12;99801.59;;;22.41;62.47
59493;BME280;45497;43.996;22.876;2023-08-06T06:03:37;99805.34;;;22.45;62.22
59493;BME280;45497;43.996;22.876;2023-08-06T06:06:02;99815.88;;;22.47;62.97
59493;BME280;45497;43.996;22.876;2023-08-06T06:08:28;99819.41;;;22.47;62.97
59493;BME280;45497;43.996;22.876;2023-08-06T06:10:54;99824.53;;;22.64;62.58
59493;BME280;45497;43.996;22.876;2023-08-06T06:13:20;99835.34;;;22.75;61.96
59493;BME280;45497;43.996;22.876;2023-08-06T06:15:46;99842.59;;;22.95;61.54
59493;BME280;45497;43.996;22.876;2023-08-06T06:18:12;99837.72;;;22.97;61.45
59493;BME280;45497;43.996;22.876;2023-08-06T06:20:38;99837.44;;;23.03;61.10
59493;BME280;45497;43.996;22.876;2023-08-06T06:23:03;99830.66;;;23.01;60.81
59493;BME280;45497;43.996;22.876;2023-08-06T06:25:29;99828.25;;;23.04;60.57
59493;BME280;45497;43.996;22.876;2023-08-06T06:27:54;99814.72;;;23.15;60.37
59493;BME280;45497;43.996;22.876;2023-08-06T06:30:20;99815.00;;;23.13;60.52
59493;BME280;45497;43.996;22.876;2023-08-06T06:32:45;99811.16;;;23.24;60.18
59493;BME280;45497;43.996;22.876;2023-08-06T06:35:12;99801.09;;;23.40;59.66
59493;BME280;45497;43.996;22.876;2023-08-06T06:37:37;99807.63;;;23.29;59.64
59493;BME280;45497;43.996;22.876;2023-08-06T06:40:03;99809.56;;;23.23;59.89
59493;BME280;45497;43.996;22.876;2023-08-06T06:42:29;99810.97;;;23.11;59.61
59493;BME280;45497;43.996;22.876;2023-08-06T06:44:54;99823.09;;;23.18;59.65
59493;BME280;45497;43.996;22.876;2023-08-06T06:47:20;99834.13;;;23.32;59.11
59493;BME280;45497;43.996;22.876;2023-08-06T06:49:45;99840.31;;;23.43;59.26
59493;BME280;45497;43.996;22.876;2023-08-06T06:52:11;99849.69;;;23.66;58.63
59493;BME280;45497;43.996;22.876;2023-08-06T06:54:36;99868.03;;;23.74;58.42
59493;BME280;45497;43.996;22.876;2023-08-06T06:57:02;99871.81;;;23.73;58.27
59493;BME280;45497;43.996;22.876;2023-08-06T06:59:28;99871.47;;;23.95;57.67
59493;BME280;45497;43.996;22.876;2023-08-06T07:01:53;99873.03;;;24.01;57.18
59493;BME280;45497;43.996;22.876;2023-08-06T07:04:19;99882.09;;;24.26;56.55
59493;BME280;45497;43.996;22.876;2023-08-06T07:06:44;99881.66;;;24.48;56.11
59493;BME280;45497;43.996;22.876;2023-08-06T07:09:10;99887.00;;;24.64;55.46
59493;BME280;45497;43.996;22.876;2023-08-06T07:11:35;99895.56;;;24.76;54.78
59493;BME280;45497;43.996;22.876;2023-08-06T07:14:01;99905.03;;;24.78;54.81
59493;BME280;45497;43.996;22.876;2023-08-06T07:16:26;99902.88;;;25.05;54.50
59493;BME280;45497;43.996;22.876;2023-08-06T07:18:53;99889.78;;;25.12;53.76
59493;BME280;45497;43.996;22.876;2023-08-06T07:21:19;99887.94;;;25.07;53.61
59493;BME280;45497;43.996;22.876;2023-08-06T07:23:45;99877.03;;;25.12;53.66
59493;BME280;45497;43.996;22.876;2023-08-06T07:26:10;99872.59;;;25.22;53.39
59493;BME280;45497;43.996;22.876;2023-08-06T07:28:36;99868.25;;;25.21;53.14
59493;BME280;45497;43.996;22.876;2023-08-06T07:31:03;99876.47;;;24.86;52.79
59493;BME280;45497;43.996;22.876;2023-08-06T07:33:28;99875.31;;;24.97;53.84
59493;BME280;45497;43.996;22.876;2023-08-06T07:35:54;99875.25;;;25.32;53.21
59493;BME280;45497;43.996;22.876;2023-08-06T07:38:19;99875.09;;;25.42;52.77
59493;BME280;45497;43.996;22.876;2023-08-06T07:40:45;99867.78;;;25.43;51.75
59493;BME280;45497;43.996;22.876;2023-08-06T07:43:11;99872.78;;;25.54;51.08
59493;BME280;45497;43.996;22.876;2023-08-06T07:45:37;99861.97;;;25.30;50.87
59493;BME280;45497;43.996;22.876;2023-08-06T07:48:03;99870.91;;;25.74;50.58
59493;BME280;45497;43.996;22.876;2023-08-06T07:50:29;99862.38;;;26.05;50.22
59493;BME280;45497;43.996;22.876;2023-08-06T07:52:54;99864.94;;;25.96;49.57
59493;BME280;45497;43.996;22.876;2023-08-06T07:55:19;99861.84;;;26.03;48.82
59493;BME280;45497;43.996;22.876;2023-08-06T07:57:45;99864.88;;;26.01;48.53
59493;BME280;45497;43.996;22.876;2023-08-06T08:00:11;99850.47;;;26.01;48.47
59493;BME280;45497;43.996;22.876;2023-08-06T08:02:36;99853.16;;;25.82;49.05
59493;BME280;45497;43.996;22.876;2023-08-06T08:05:02;99851.56;;;26.19;49.21
59493;BME280;45497;43.996;22.876;2023-08-06T08:07:27;99853.41;;;26.56;48.10
59493;BME280;45497;43.996;22.876;2023-08-06T08:09:55;99866.09;;;26.80;48.02
59493;BME280;45497;43.996;22.876;2023-08-06T08:12:21;99870.66;;;26.98;46.69
59493;BME280;45497;43.996;22.876;2023-08-06T08:14:46;99859.66;;;26.89;47.03
59493;BME280;45497;43.996;22.876;2023-08-06T08:17:12;99868.84;;;27.07;46.54
59493;BME280;45497;43.996;22.876;2023-08-06T08:19:37;99863.09;;;27.09;46.51
59493;BME280;45497;43.996;22.876;2023-08-06T08:22:03;99855.75;;;26.96;46.00
59493;BME280;45497;43.996;22.876;2023-08-06T08:24:29;99866.22;;;26.88;45.63
59493;BME280;45497;43.996;22.876;2023-08-06T08:26:56;99854.50;;;26.88;45.97
59493;BME280;45497;43.996;22.876;2023-08-06T08:29:22;99858.34;;;27.15;45.72
59493;BME280;45497;43.996;22.876;2023-08-06T08:31:49;99851.59;;;26.98;44.98
59493;BME280;45497;43.996;22.876;2023-08-06T08:34:18;99861.69;;;26.98;44.54
59493;BME280;45497;43.996;22.876;2023-08-06T08:36:44;99865.28;;;26.93;45.42
59493;BME280;45497;43.996;22.876;2023-08-06T08:39:12;99868.34;;;27.19;45.03
59493;BME280;45497;43.996;22.876;2023-08-06T08:41:38;99854.03;;;27.00;44.54
59493;BME280;45497;43.996;22.876;2023-08-06T08:44:09;99854.13;;;27.08;44.75
59493;BME280;45497;43.996;22.876;2023-08-06T08:46:39;99848.72;;;27.36;44.86
59493;BME280;45497;43.996;22.876;2023-08-06T08:49:06;99844.75;;;27.70;45.27
59493;BME280;45497;43.996;22.876;2023-08-06T08:51:33;99843.38;;;27.81;44.53
59493;BME280;45497;43.996;22.876;2023-08-06T08:53:59;99836.00;;;27.96;43.97
59493;BME280;45497;43.996;22.876;2023-08-06T08:56:27;99822.03;;;28.11;44.34
59493;BME280;45497;43.996;22.876;2023-08-06T08:58:53;99828.00;;;28.13;43.22
59493;BME280;45497;43.996;22.876;2023-08-06T09:01:21;99826.63;;;28.25;43.26
59493;BME280;45497;43.996;22.876;2023-08-06T09:03:47;99822.34;;;28.32;42.42
59493;BME280;45497;43.996;22.876;2023-08-06T09:06:13;99817.41;;;28.34;42.70
59493;BME280;45497;43.996;22.876;2023-08-06T09:08:50;99821.66;;;28.27;42.55
59493;BME280;45497;43.996;22.876;2023-08-06T09:11:18;99824.44;;;27.90;42.25
59493;BME280;45497;43.996;22.876;2023-08-06T09:13:46;99815.47;;;28.12;42.97
59493;BME280;45497;43.996;22.876;2023-08-06T09:16:12;99809.84;;;28.31;42.49
59493;BME280;45497;43.996;22.876;2023-08-06T09:18:38;99808.81;;;28.50;42.41
59493;BME280;45497;43.996;22.876;2023-08-06T09:21:04;99815.94;;;28.14;42.46
59493;BME280;45497;43.996;22.876;2023-08-06T09:23:31;99802.09;;;28.02;43.18
59493;BME280;45497;43.996;22.876;2023-08-06T09:25:57;99798.13;;;28.08;42.46
59493;BME280;45497;43.996;22.876;2023-08-06T09:28:23;99799.00;;;28.40;41.68
59493;BME280;45497;43.996;22.876;2023-08-06T09:30:50;99795.13;;;28.64;41.59
59493;BME280;45497;43.996;22.876;2023-08-06T09:33:19;99799.16;;;28.66;41.75
59493;BME280;45497;43.996;22.876;2023-08-06T09:35:46;99801.28;;;28.78;41.42
59493;BME280;45497;43.996;22.876;2023-08-06T09:38:12;99792.31;;;28.77;42.08
59493;BME280;45497;43.996;22.876;2023-08-06T09:40:38;99801.69;;;28.94;41.90
59493;BME280;45497;43.996;22.876;2023-08-06T09:43:04;99807.31;;;28.97;41.72
59493;BME280;45497;43.996;22.876;2023-08-06T09:45:35;99808.81;;;28.50;41.25
59493;BME280;45497;43.996;22.876;2023-08-06T09:48:05;99802.81;;;28.39;41.96
59493;BME280;45497;43.996;22.876;2023-08-06T09:50:32;99804.69;;;28.84;41.92
59493;BME280;45497;43.996;22.876;2023-08-06T09:53:00;99807.78;;;28.59;41.91
59493;BME280;45497;43.996;22.876;2023-08-06T09:55:26;99810.72;;;28.72;40.92
59493;BME280;45497;43.996;22.876;2023-08-06T09:57:52;99814.66;;;28.97;41.10
59493;BME280;45497;43.996;22.876;2023-08-06T10:00:18;99818.22;;;28.97;41.09
59493;BME280;45497;43.996;22.876;2023-08-06T10:02:45;99825.06;;;28.86;40.06
59493;BME280;45497;43.996;22.876;2023-08-06T10:05:10;99807.41;;;28.52;40.60
59493;BME280;45497;43.996;22.876;2023-08-06T10:07:37;99819.09;;;28.53;40.96
59493;BME280;45497;43.996;22.876;2023-08-06T10:10:06;99826.78;;;28.73;40.21
59493;BME280;45497;43.996;22.876;2023-08-06T10:12:34;99830.44;;;28.46;40.46
59493;BME280;45497;43.996;22.876;2023-08-06T10:15:04;99822.88;;;28.43;40.24
59493;BME280;45497;43.996;22.876;2023-08-06T10:17:33;99821.34;;;28.51;40.48
59493;BME280;45497;43.996;22.876;2023-08-06T10:20:00;99831.06;;;28.43;40.74
59493;BME280;45497;43.996;22.876;2023-08-06T10:22:25;99828.78;;;28.36;40.50
59493;BME280;45497;43.996;22.876;2023-08-06T10:24:54;99811.97;;;28.66;40.49
59493;BME280;45497;43.996;22.876;2023-08-06T10:27:29;99824.13;;;28.14;40.30
59493;BME280;45497;43.996;22.876;2023-08-06T10:30:14;99821.59;;;27.81;40.65
59493;BME280;45497;43.996;22.876;2023-08-06T10:32:49;99816.22;;;28.04;40.72
59493;BME280;45497;43.996;22.876;2023-08-06T10:35:34;99814.16;;;28.55;39.52
59493;BME280;45497;43.996;22.876;2023-08-06T10:40:36;99808.69;;;28.77;40.24
59493;BME280;45497;43.996;22.876;2023-08-06T10:43:03;99813.47;;;29.12;39.14
59493;BME280;45497;43.996;22.876;2023-08-06T10:45:29;99800.59;;;29.12;38.73
59493;BME280;45497;43.996;22.876;2023-08-06T10:47:56;99802.25;;;29.22;39.07
59493;BME280;45497;43.996;22.876;2023-08-06T10:50:22;99810.63;;;29.26;38.57
59493;BME280;45497;43.996;22.876;2023-08-06T10:52:48;99797.31;;;29.42;38.61
59493;BME280;45497;43.996;22.876;2023-08-06T10:55:21;99799.75;;;29.52;38.16
59493;BME280;45497;43.996;22.876;2023-08-06T10:57:47;99793.66;;;29.72;37.75
59493;BME280;45497;43.996;22.876;2023-08-06T11:00:13;99781.47;;;29.70;37.08
59493;BME280;45497;43.996;22.876;2023-08-06T11:02:39;99800.25;;;29.71;37.18
59493;BME280;45497;43.996;22.876;2023-08-06T11:05:08;99790.44;;;29.70;37.56
59493;BME280;45497;43.996;22.876;2023-08-06T11:07:35;99794.97;;;30.01;37.23
59493;BME280;45497;43.996;22.876;2023-08-06T11:10:05;99787.13;;;29.91;36.56
59493;BME280;45497;43.996;22.876;2023-08-06T11:12:32;99788.72;;;29.83;36.81
59493;BME280;45497;43.996;22.876;2023-08-06T11:14:58;99781.59;;;29.65;37.60
59493;BME280;45497;43.996;22.876;2023-08-06T11:17:23;99781.75;;;29.51;37.67
59493;BME280;45497;43.996;22.876;2023-08-06T11:19:49;99789.91;;;29.16;38.22
59493;BME280;45497;43.996;22.876;2023-08-06T11:22:16;99783.31;;;29.26;38.58
59493;BME280;45497;43.996;22.876;2023-08-06T11:25:01;99783.47;;;29.21;39.26
59493;BME280;45497;43.996;22.876;2023-08-06T11:27:27;99787.66;;;29.27;39.40
59493;BME280;45497;43.996;22.876;2023-08-06T11:29:54;99792.56;;;29.07;39.92
59493;BME280;45497;43.996;22.876;2023-08-06T11:32:19;99793.38;;;28.68;40.54
59493;BME280;45497;43.996;22.876;2023-08-06T11:34:45;99792.06;;;28.96;40.60
59493;BME280;45497;43.996;22.876;2023-08-06T11:37:11;99792.41;;;28.64;40.81
59493;BME280;45497;43.996;22.876;2023-08-06T11:39:37;99793.38;;;28.68;41.39
59493;BME280;45497;43.996;22.876;2023-08-06T11:42:06;99789.63;;;28.55;41.46
59493;BME280;45497;43.996;22.876;2023-08-06T11:44:36;99787.56;;;28.60;41.13
59493;BME280;45497;43.996;22.876;2023-08-06T11:47:03;99787.84;;;28.82;41.00
59493;BME280;45497;43.996;22.876;2023-08-06T11:52:22;99778.16;;;28.67;40.76
59493;BME280;45497;43.996;22.876;2023-08-06T11:55:04;99775.25;;;28.72;40.68
59493;BME280;45497;43.996;22.876;2023-08-06T11:57:36;99767.50;;;28.96;40.59
59493;BME280;45497;43.996;22.876;2023-08-06T12:00:12;99753.28;;;29.26;39.86
59493;BME280;45497;43.996;22.876;2023-08-06T12:02:42;99754.38;;;29.07;39.89
59493;BME280;45497;43.996;22.876;2023-08-06T12:07:44;99762.16;;;28.51;40.73
59493;BME280;45497;43.996;22.876;2023-08-06T12:10:10;99755.66;;;28.61;41.11
59493;BME280;45497;43.996;22.876;2023-08-06T12:12:36;99757.06;;;28.98;40.70
59493;BME280;45497;43.996;22.876;2023-08-06T12:15:03;99751.84;;;29.20;40.42
59493;BME280;45497;43.996;22.876;2023-08-06T12:17:28;99756.53;;;29.36;40.06
59493;BME280;45497;43.996;22.876;2023-08-06T12:19:54;99752.50;;;29.25;39.75
59493;BME280;45497;43.996;22.876;2023-08-06T12:22:19;99751.47;;;29.04;39.22
59493;BME280;45497;43.996;22.876;2023-08-06T12:24:46;99755.97;;;29.08;39.89
59493;BME280;45497;43.996;22.876;2023-08-06T12:27:12;99759.25;;;29.28;39.37
59493;BME280;45497;43.996;22.876;2023-08-06T12:29:41;99753.78;;;29.19;38.77
59493;BME280;45497;43.996;22.876;2023-08-06T12:32:08;99755.28;;;28.85;39.07
59493;BME280;45497;43.996;22.876;2023-08-06T12:34:33;99751.44;;;28.95;39.38
59493;BME280;45497;43.996;22.876;2023-08-06T12:36:59;99744.66;;;29.32;38.72
59493;BME280;45497;43.996;22.876;2023-08-06T12:39:24;99739.84;;;29.55;38.80
59493;BME280;45497;43.996;22.876;2023-08-06T12:41:50;99745.16;;;29.52;37.21
59493;BME280;45497;43.996;22.876;2023-08-06T12:44:15;99734.38;;;29.47;36.17
59493;BME280;45497;43.996;22.876;2023-08-06T12:46:41;99748.34;;;29.19;34.56
59493;BME280;45497;43.996;22.876;2023-08-06T12:49:06;99729.31;;;28.96;34.87
59493;BME280;45497;43.996;22.876;2023-08-06T12:51:32;99728.44;;;29.53;34.55
59493;BME280;45497;43.996;22.876;2023-08-06T12:53:59;99730.69;;;29.86;34.43
59493;BME280;45497;43.996;22.876;2023-08-06T12:56:24;99729.09;;;29.68;34.93
59493;BME280;45497;43.996;22.876;2023-08-06T12:58:50;99724.41;;;29.68;35.12
59493;BME280;45497;43.996;22.876;2023-08-06T13:01:15;99721.03;;;29.63;35.60
59493;BME280;45497;43.996;22.876;2023-08-06T13:03:41;99719.59;;;29.74;35.69
59493;BME280;45497;43.996;22.876;2023-08-06T13:06:06;99730.38;;;29.79;36.02
59493;BME280;45497;43.996;22.876;2023-08-06T13:08:33;99727.78;;;30.00;35.92